Time;durP1;ratioP1;P1;durP2;ratioP2;P2;SDS_P1;SDS_P2;PMS_P1;PMS_P2;Temp;Humidity;BMP_temperature;BMP_pressure;BME280_temperature;BME280_humidity;BME280_pressure;Samples;Min_cycle;Max_cycle;Signal;HPM_P1;HPM_P2
2023/07/20 00:01:25;;;;;;;1.25;1.02;;;15.50;99.90;;;;;;5047207;28;20049;-67
2023/07/20 00:03:57;;;;;;;1.73;1.10;;;15.50;99.90;;;;;;5026152;28;20049;-67
2023/07/20 00:06:24;;;;;;;2.10;1.15;;;15.50;99.90;;;;;;5037915;28;20407;-67
2023/07/20 00:08:59;;;;;;;1.40;0.90;;;15.40;99.90;;;;;;5034944;28;20103;-67
2023/07/20 00:11:27;;;;;;;1.77;1.10;;;15.40;99.90;;;;;;5016725;28;20045;-67
2023/07/20 00:13:53;;;;;;;1.55;1.02;;;15.30;99.90;;;;;;5044928;28;20408;-67
2023/07/20 00:16:19;;;;;;;1.58;0.82;;;15.30;99.90;;;;;;5045342;28;20037;-67
2023/07/20 00:18:44;;;;;;;1.50;0.80;;;15.20;99.90;;;;;;5050957;28;20040;-67
2023/07/20 00:21:10;;;;;;;3.67;0.93;;;15.20;99.90;;;;;;5029828;28;20048;-67
2023/07/20 00:23:36;;;;;;;3.63;0.90;;;15.10;99.90;;;;;;5048425;28;20449;-67
2023/07/20 00:26:02;;;;;;;3.45;1.17;;;15.10;99.90;;;;;;5023434;28;20075;-68
2023/07/20 00:28:27;;;;;;;1.88;1.10;;;15.00;99.90;;;;;;5039905;28;20049;-67
2023/07/20 00:30:53;;;;;;;2.05;0.95;;;15.00;99.90;;;;;;5027777;28;20491;-67
2023/07/20 00:33:19;;;;;;;1.50;0.90;;;15.00;99.90;;;;;;5055463;28;20044;-67
2023/07/20 00:35:45;;;;;;;2.08;1.10;;;14.90;99.90;;;;;;5047595;28;20156;-67
2023/07/20 00:38:11;;;;;;;1.63;0.93;;;14.90;99.90;;;;;;5048733;28;20047;-67
2023/07/20 00:40:41;;;;;;;1.17;0.70;;;14.90;99.90;;;;;;5047256;28;20044;-68
2023/07/20 00:43:08;;;;;;;1.80;0.80;;;14.90;99.90;;;;;;5031796;28;20044;-67
2023/07/20 00:45:36;;;;;;;1.45;0.73;;;14.90;99.90;;;;;;5049760;28;20037;-67
2023/07/20 00:48:03;;;;;;;2.17;1.13;;;14.80;99.90;;;;;;5048229;28;20561;-67
2023/07/20 00:50:30;;;;;;;1.80;0.88;;;14.80;99.90;;;;;;5035206;28;20040;-68
2023/07/20 00:52:56;;;;;;;4.25;0.98;;;14.80;99.90;;;;;;5050046;28;20374;-67
2023/07/20 00:55:24;;;;;;;2.25;1.20;;;14.80;99.90;;;;;;5058009;28;20032;-68
2023/07/20 00:57:50;;;;;;;1.90;1.20;;;14.70;99.90;;;;;;5042502;28;20083;-68
2023/07/20 01:00:17;;;;;;;2.85;1.05;;;14.70;99.90;;;;;;5050082;28;20188;-67
2023/07/20 01:02:43;;;;;;;1.60;1.00;;;14.70;99.90;;;;;;5049405;28;20067;-74
2023/07/20 01:05:09;;;;;;;2.75;1.10;;;14.70;99.90;;;;;;5030969;28;20499;-67
2023/07/20 01:07:43;;;;;;;3.03;1.30;;;14.60;99.90;;;;;;5030577;28;20098;-67
2023/07/20 01:10:40;;;;;;;2.92;0.95;;;14.70;99.90;;;;;;5031028;28;20075;-67
2023/07/20 01:13:09;;;;;;;2.03;1.20;;;14.60;99.90;;;;;;5031636;28;20402;-68
2023/07/20 01:15:35;;;;;;;2.10;1.40;;;14.60;99.90;;;;;;5044171;28;20075;-67
2023/07/20 01:18:04;;;;;;;2.58;1.13;;;14.60;99.90;;;;;;5048682;28;20033;-68
2023/07/20 01:20:33;;;;;;;4.53;1.42;;;14.60;99.90;;;;;;5048331;28;20474;-68
2023/07/20 01:23:07;;;;;;;2.20;1.30;;;14.50;99.90;;;;;;5048571;28;20049;-68
2023/07/20 01:25:55;;;;;;;3.25;1.30;;;14.60;99.90;;;;;;5043094;28;20291;-68
2023/07/20 01:28:48;;;;;;;2.40;1.33;;;14.60;99.90;;;;;;5028608;28;20040;-68
2023/07/20 01:31:34;;;;;;;2.17;1.38;;;14.50;99.90;;;;;;5045524;28;20120;-67
2023/07/20 01:34:03;;;;;;;2.17;1.50;;;14.50;99.90;;;;;;5028574;28;20112;-67
2023/07/20 01:36:32;;;;;;;3.08;1.75;;;14.50;99.90;;;;;;5047661;28;20284;-67
2023/07/20 01:38:59;;;;;;;4.95;1.48;;;14.50;99.90;;;;;;5048166;28;20124;-67
2023/07/20 01:41:25;;;;;;;3.40;1.50;;;14.50;99.90;;;;;;5042442;28;20183;-67
2023/07/20 01:43:50;;;;;;;4.32;1.48;;;14.40;99.90;;;;;;5046520;28;20112;-67
2023/07/20 01:46:16;;;;;;;2.35;1.40;;;14.40;99.90;;;;;;5049779;28;20447;-67
2023/07/20 01:48:42;;;;;;;2.78;1.63;;;14.40;99.90;;;;;;5044976;28;20344;-67
2023/07/20 01:51:08;;;;;;;1.83;1.35;;;14.40;99.90;;;;;;5030718;28;20033;-67
2023/07/20 01:53:34;;;;;;;2.45;1.20;;;14.40;99.90;;;;;;5049143;28;20045;-67
2023/07/20 01:56:00;;;;;;;3.28;1.55;;;14.40;99.90;;;;;;5047314;28;20123;-67
2023/07/20 01:58:25;;;;;;;2.13;1.58;;;14.30;99.90;;;;;;5047739;28;20134;-67
2023/07/20 02:00:51;;;;;;;2.72;1.60;;;14.30;99.90;;;;;;5047047;28;20135;-67
2023/07/20 02:03:17;;;;;;;2.15;1.50;;;14.30;99.90;;;;;;5030173;28;20033;-67
2023/07/20 02:05:43;;;;;;;3.20;1.67;;;14.30;99.90;;;;;;5045712;28;20320;-67
2023/07/20 02:08:09;;;;;;;;;;;14.30;99.90;;;;;;5047876;28;20044;-67
2023/07/20 02:10:35;;;;;;;2.50;1.40;;;14.20;99.90;;;;;;5046837;28;20374;-67
2023/07/20 02:13:01;;;;;;;2.63;1.60;;;14.20;99.90;;;;;;5047900;28;20530;-67
2023/07/20 02:15:27;;;;;;;3.95;1.85;;;14.20;99.90;;;;;;5042424;28;20076;-67
2023/07/20 02:17:53;;;;;;;2.30;1.55;;;14.20;99.90;;;;;;5045763;28;20102;-67
2023/07/20 02:20:19;;;;;;;2.50;1.67;;;14.10;99.90;;;;;;5048352;28;20051;-66
2023/07/20 02:22:45;;;;;;;2.13;1.40;;;14.10;99.90;;;;;;5015010;28;20439;-66
2023/07/20 02:25:11;;;;;;;4.75;1.30;;;14.10;99.90;;;;;;5028718;28;20038;-67
2023/07/20 02:27:38;;;;;;;2.75;1.63;;;14.10;99.90;;;;;;5046096;28;20570;-68
2023/07/20 02:30:05;;;;;;;3.42;1.50;;;14.10;99.90;;;;;;5027639;28;20045;-67
2023/07/20 02:32:31;;;;;;;;;;;14.00;99.90;;;;;;5045496;28;20040;-67
2023/07/20 02:34:57;;;;;;;1.83;1.13;;;14.00;99.90;;;;;;5027536;28;19921;-67
2023/07/20 02:37:23;;;;;;;4.78;1.30;;;13.90;99.90;;;;;;5042762;28;20037;-67
2023/07/20 02:39:49;;;;;;;2.20;1.40;;;13.90;99.90;;;;;;5046045;28;20080;-67
2023/07/20 02:42:15;;;;;;;3.05;1.80;;;13.90;99.90;;;;;;5022239;28;20102;-67
2023/07/20 02:44:41;;;;;;;2.20;1.30;;;13.90;99.90;;;;;;5047975;28;20117;-67
2023/07/20 02:47:06;;;;;;;2.10;1.23;;;13.90;99.90;;;;;;5048025;28;20099;-67
2023/07/20 02:49:32;;;;;;;3.33;1.33;;;13.90;99.90;;;;;;5048884;28;20456;-67
2023/07/20 02:51:58;;;;;;;1.75;1.27;;;13.90;99.90;;;;;;5044356;28;20051;-67
2023/07/20 02:54:24;;;;;;;1.88;1.38;;;13.80;99.90;;;;;;5031034;28;20045;-67
2023/07/20 02:56:49;;;;;;;3.25;1.30;;;13.80;99.90;;;;;;5044253;28;20136;-67
2023/07/20 02:59:15;;;;;;;3.92;1.48;;;13.80;99.90;;;;;;5028685;28;20036;-67
2023/07/20 03:01:42;;;;;;;1.38;1.00;;;13.80;99.90;;;;;;5044983;28;20040;-67
2023/07/20 03:04:10;;;;;;;3.55;1.60;;;13.80;99.90;;;;;;5046063;28;20095;-67
2023/07/20 03:06:36;;;;;;;4.53;1.40;;;13.80;99.90;;;;;;5011627;28;20048;-67
2023/07/20 03:09:03;;;;;;;4.85;1.60;;;13.80;99.90;;;;;;5018084;28;20049;-68
2023/07/20 03:11:29;;;;;;;3.95;1.63;;;13.80;99.90;;;;;;5020919;28;20033;-67
2023/07/20 03:13:55;;;;;;;2.72;1.70;;;13.80;99.90;;;;;;5029940;28;20025;-67
2023/07/20 03:16:24;;;;;;;2.92;1.60;;;13.80;99.90;;;;;;5023961;28;20442;-67
2023/07/20 03:18:51;;;;;;;2.80;1.60;;;13.80;99.90;;;;;;5027204;28;20095;-67
2023/07/20 03:21:16;;;;;;;2.97;1.50;;;13.80;99.90;;;;;;5010757;28;20049;-67
2023/07/20 03:23:42;;;;;;;1.98;1.20;;;13.80;99.90;;;;;;5010351;28;20041;-67
2023/07/20 03:26:08;;;;;;;3.45;1.40;;;13.80;99.90;;;;;;5007450;28;20136;-67
2023/07/20 03:28:38;;;;;;;3.05;1.50;;;13.80;99.90;;;;;;5009705;28;20041;-67
2023/07/20 03:31:04;;;;;;;4.55;1.65;;;13.70;99.90;;;;;;5027885;28;20526;-67
2023/07/20 03:33:31;;;;;;;2.63;1.58;;;13.80;99.90;;;;;;5027500;28;20075;-67
2023/07/20 03:35:57;;;;;;;2.42;1.30;;;13.80;99.90;;;;;;5007090;28;20050;-67
2023/07/20 03:38:25;;;;;;;2.67;1.50;;;13.80;99.90;;;;;;5026165;28;20052;-67
2023/07/20 03:40:52;;;;;;;3.95;1.80;;;13.80;99.90;;;;;;5010298;28;20068;-67
2023/07/20 03:43:17;;;;;;;2.33;1.35;;;13.80;99.90;;;;;;5022049;28;20045;-67
2023/07/20 03:45:45;;;;;;;2.88;1.65;;;13.80;99.90;;;;;;5009791;28;20125;-67
2023/07/20 03:48:11;;;;;;;7.25;1.83;;;13.80;99.90;;;;;;5008806;28;20077;-67
2023/07/20 03:50:37;;;;;;;2.25;1.42;;;13.80;99.90;;;;;;5005119;28;20411;-67
2023/07/20 03:53:03;;;;;;;3.47;1.50;;;13.80;99.90;;;;;;5007366;28;20041;-67
2023/07/20 03:55:29;;;;;;;4.20;1.45;;;13.70;99.90;;;;;;4991300;28;20080;-67
2023/07/20 03:57:54;;;;;;;2.90;1.40;;;13.70;99.90;;;;;;5023758;28;20503;-67
2023/07/20 04:00:21;;;;;;;3.20;2.00;;;13.70;99.90;;;;;;5007355;28;20175;-67
2023/07/20 04:02:46;;;;;;;2.85;1.65;;;13.70;99.90;;;;;;5011437;28;20045;-67
2023/07/20 04:05:12;;;;;;;3.35;1.83;;;13.70;99.90;;;;;;5023670;28;20414;-67
2023/07/20 04:07:38;;;;;;;4.10;1.35;;;13.70;99.90;;;;;;5028987;28;20041;-67
2023/07/20 04:10:04;;;;;;;2.30;1.48;;;13.70;99.90;;;;;;5047768;28;20041;-67
2023/07/20 04:12:30;;;;;;;5.85;1.30;;;13.60;99.90;;;;;;5051833;28;20056;-67
2023/07/20 04:14:55;;;;;;;2.97;1.48;;;13.70;99.90;;;;;;5034353;28;20040;-67
2023/07/20 04:17:21;;;;;;;2.50;1.70;;;13.70;99.90;;;;;;5024431;28;20116;-68
2023/07/20 04:19:47;;;;;;;2.90;1.83;;;13.70;99.90;;;;;;5029990;28;20491;-68
2023/07/20 04:22:15;;;;;;;2.30;1.40;;;13.70;99.90;;;;;;5032238;28;20051;-68
2023/07/20 04:24:42;;;;;;;4.50;1.90;;;13.60;99.90;;;;;;5049499;28;20320;-67
2023/07/20 04:27:08;;;;;;;2.78;1.73;;;13.70;99.90;;;;;;5052946;28;20087;-67
2023/07/20 04:29:34;;;;;;;2.42;1.52;;;13.70;99.90;;;;;;5049097;28;20033;-67
2023/07/20 04:32:00;;;;;;;3.08;2.00;;;13.80;99.90;;;;;;5029856;28;20055;-67
2023/07/20 04:34:26;;;;;;;4.10;1.70;;;13.70;99.90;;;;;;5053963;28;20048;-68
2023/07/20 04:36:51;;;;;;;2.78;1.77;;;13.70;99.90;;;;;;5053448;28;20544;-68
2023/07/20 04:39:17;;;;;;;2.60;1.63;;;13.80;99.90;;;;;;5036637;28;20040;-67
2023/07/20 04:41:43;;;;;;;2.13;1.40;;;13.80;99.90;;;;;;5045344;28;20468;-68
2023/07/20 04:44:09;;;;;;;1.92;1.50;;;13.80;99.90;;;;;;5029146;28;20040;-68
2023/07/20 04:46:34;;;;;;;3.30;1.65;;;13.80;99.90;;;;;;5045146;28;20072;-68
2023/07/20 04:49:01;;;;;;;4.00;1.85;;;13.80;99.90;;;;;;5045930;28;20068;-67
2023/07/20 04:51:27;;;;;;;2.65;1.60;;;13.80;99.90;;;;;;5043873;28;20495;-68
2023/07/20 04:53:53;;;;;;;4.28;1.42;;;13.90;99.90;;;;;;5030863;28;20121;-67
2023/07/20 04:56:18;;;;;;;5.30;1.95;;;13.90;99.90;;;;;;5030542;28;20091;-67
2023/07/20 04:58:45;;;;;;;3.78;2.00;;;13.90;99.90;;;;;;5047904;28;20033;-67
2023/07/20 05:01:10;;;;;;;;;;;14.00;99.90;;;;;;5027717;28;20048;-67
2023/07/20 05:03:36;;;;;;;3.60;1.80;;;13.90;99.90;;;;;;5030512;28;19931;-67
2023/07/20 05:06:02;;;;;;;4.38;1.70;;;14.00;99.90;;;;;;5050546;28;20053;-67
2023/07/20 05:08:28;;;;;;;3.40;1.98;;;14.00;99.90;;;;;;5031808;28;20056;-67
2023/07/20 05:10:53;;;;;;;4.57;2.05;;;14.10;99.90;;;;;;5027095;28;20371;-68
2023/07/20 05:13:19;;;;;;;2.60;1.50;;;14.10;99.90;;;;;;5031734;28;20043;-68
2023/07/20 05:15:45;;;;;;;2.40;1.48;;;14.20;99.90;;;;;;5051831;28;20036;-68
2023/07/20 05:18:10;;;;;;;3.40;1.60;;;14.20;99.90;;;;;;5026630;28;20049;-68
2023/07/20 05:20:37;;;;;;;3.65;1.63;;;14.30;99.90;;;;;;5029264;28;20037;-68
2023/07/20 05:23:02;;;;;;;;;;;14.30;99.90;;;;;;5032641;28;20055;-68
2023/07/20 05:25:28;;;;;;;3.95;1.25;;;14.30;99.90;;;;;;5036826;28;19920;-68
2023/07/20 05:27:55;;;;;;;3.78;1.48;;;14.40;99.90;;;;;;5032384;28;20033;-68
2023/07/20 05:30:21;;;;;;;2.63;1.52;;;14.40;99.90;;;;;;5031126;28;20041;-68
2023/07/20 05:32:50;;;;;;;3.97;2.13;;;14.50;99.90;;;;;;5031814;28;20041;-68
2023/07/20 05:35:17;;;;;;;4.22;2.08;;;14.60;99.90;;;;;;5046953;28;20052;-68
2023/07/20 05:37:44;;;;;;;5.10;2.00;;;14.60;99.90;;;;;;5029461;28;20409;-68
2023/07/20 05:40:12;;;;;;;2.55;1.70;;;14.70;99.90;;;;;;5033188;28;20040;-67
2023/07/20 05:42:38;;;;;;;3.80;1.35;;;14.70;99.90;;;;;;5047224;28;20056;-67
2023/07/20 05:45:04;;;;;;;2.83;1.38;;;14.80;99.90;;;;;;5047554;28;20119;-67
2023/07/20 05:47:30;;;;;;;3.15;1.20;;;14.90;99.90;;;;;;5052338;28;20079;-71
2023/07/20 05:49:56;;;;;;;4.38;1.10;;;14.90;99.90;;;;;;5029587;28;20466;-71
2023/07/20 05:52:22;;;;;;;2.85;1.50;;;15.00;99.90;;;;;;5027577;28;20804;-70
2023/07/20 05:54:48;;;;;;;1.67;0.88;;;15.00;99.90;;;;;;5023183;28;20093;-67
2023/07/20 05:57:16;;;;;;;2.67;1.00;;;15.00;99.90;;;;;;5047928;28;20055;-68
2023/07/20 05:59:44;;;;;;;3.08;1.02;;;15.10;99.90;;;;;;5030384;28;20120;-71
2023/07/20 06:02:10;;;;;;;1.65;0.88;;;15.10;99.90;;;;;;5030748;28;20062;-74
2023/07/20 06:04:36;;;;;;;4.80;1.20;;;15.10;99.90;;;;;;5029935;28;20140;-73
2023/07/20 06:07:02;;;;;;;4.35;1.25;;;15.20;99.90;;;;;;5026552;28;20048;-68
2023/07/20 06:09:29;;;;;;;2.00;0.93;;;15.20;99.90;;;;;;5048252;28;20609;-68
2023/07/20 06:11:54;;;;;;;;;;;15.20;99.90;;;;;;5053715;28;20045;-68
2023/07/20 06:14:20;;;;;;;2.28;0.80;;;15.30;99.90;;;;;;5050381;28;19916;-68
2023/07/20 06:16:46;;;;;;;1.58;0.90;;;15.30;99.90;;;;;;5048232;28;20052;-69
2023/07/20 06:19:12;;;;;;;2.60;0.93;;;15.30;99.90;;;;;;5045048;28;20044;-69
2023/07/20 06:21:38;;;;;;;2.67;1.02;;;15.40;99.90;;;;;;5018340;28;20146;-69
2023/07/20 06:24:04;;;;;;;3.03;1.30;;;15.40;99.90;;;;;;5031826;28;20052;-69
2023/07/20 06:26:32;;;;;;;3.20;0.90;;;15.40;99.90;;;;;;5032138;28;20561;-68
2023/07/20 06:28:58;;;;;;;3.50;0.80;;;15.50;99.90;;;;;;5027180;28;20116;-70
2023/07/20 06:31:23;;;;;;;2.15;0.90;;;15.50;99.90;;;;;;5041759;28;20120;-69
2023/07/20 06:33:49;;;;;;;3.25;0.90;;;15.60;99.90;;;;;;5041861;28;20182;-69
2023/07/20 06:36:18;;;;;;;1.58;0.70;;;15.60;99.90;;;;;;5030297;28;20060;-69
2023/07/20 06:38:43;;;;;;;5.97;0.80;;;15.60;99.90;;;;;;5015829;28;20572;-68
2023/07/20 06:41:09;;;;;;;2.60;0.80;;;15.70;99.90;;;;;;5042781;28;20090;-69
2023/07/20 06:43:35;;;;;;;2.85;0.70;;;15.70;99.90;;;;;;5008515;28;20407;-72
2023/07/20 06:46:00;;;;;;;3.55;0.80;;;15.80;99.90;;;;;;5031140;28;20181;-71
2023/07/20 06:48:26;;;;;;;2.22;0.55;;;15.80;99.90;;;;;;5024772;28;20046;-71
2023/07/20 06:50:53;;;;;;;5.63;1.48;;;15.90;99.90;;;;;;5030571;28;20037;-72
2023/07/20 06:53:19;;;;;;;2.70;0.70;;;15.90;99.90;;;;;;5031597;28;20125;-71
2023/07/20 06:55:45;;;;;;;3.42;0.80;;;16.00;99.90;;;;;;5051120;28;20454;-72
2023/07/20 06:58:11;;;;;;;3.88;1.17;;;16.00;99.90;;;;;;5032378;28;20044;-71
2023/07/20 07:00:37;;;;;;;3.55;0.70;;;16.00;99.90;;;;;;5032949;28;20478;-72
2023/07/20 07:03:03;;;;;;;2.13;0.60;;;16.10;99.90;;;;;;5027812;28;20509;-72
2023/07/20 07:05:29;;;;;;;1.65;0.60;;;16.10;99.90;;;;;;5034015;28;20075;-72
2023/07/20 07:07:54;;;;;;;3.88;0.70;;;16.10;99.90;;;;;;5028973;28;20032;-71
2023/07/20 07:10:20;;;;;;;3.28;1.05;;;16.20;99.90;;;;;;5034674;28;20098;-71
2023/07/20 07:12:46;;;;;;;2.25;0.80;;;16.20;99.90;;;;;;5035080;28;20060;-69
2023/07/20 07:15:12;;;;;;;4.20;0.90;;;16.30;99.90;;;;;;5033847;28;20041;-69
2023/07/20 07:17:38;;;;;;;1.85;0.77;;;16.30;99.90;;;;;;5033645;28;20036;-69
2023/07/20 07:20:05;;;;;;;5.07;0.80;;;16.30;99.90;;;;;;5034342;28;20056;-69
2023/07/20 07:22:30;;;;;;;1.42;0.52;;;16.40;99.90;;;;;;5034013;28;20048;-69
2023/07/20 07:24:56;;;;;;;3.58;0.85;;;16.50;99.90;;;;;;5030266;28;20043;-68
2023/07/20 07:27:22;;;;;;;2.80;0.90;;;16.50;99.90;;;;;;5049401;28;20119;-68
2023/07/20 07:29:49;;;;;;;6.57;0.85;;;16.60;99.90;;;;;;5046359;28;20040;-68
2023/07/20 07:32:15;;;;;;;4.15;1.15;;;16.70;99.90;;;;;;5025680;28;20483;-68
2023/07/20 07:34:40;;;;;;;;;;;16.70;99.90;;;;;;5044888;28;20071;-69
2023/07/20 07:37:06;;;;;;;1.95;0.80;;;16.70;99.90;;;;;;5047916;28;19917;-70
2023/07/20 07:39:32;;;;;;;3.00;1.00;;;16.80;99.90;;;;;;5033137;28;20478;-69
2023/07/20 07:41:58;;;;;;;4.65;1.23;;;16.80;99.90;;;;;;5030312;28;20442;-69
2023/07/20 07:44:24;;;;;;;3.85;1.48;;;16.70;99.90;;;;;;5042951;28;20064;-69
2023/07/20 07:46:50;;;;;;;3.10;1.08;;;16.70;99.90;;;;;;5032314;28;20320;-68
2023/07/20 07:49:16;;;;;;;2.88;1.23;;;16.60;99.90;;;;;;5032980;28;20124;-69
2023/07/20 07:51:42;;;;;;;3.63;1.15;;;16.60;99.90;;;;;;5021205;28;20049;-69
2023/07/20 07:54:08;;;;;;;4.25;1.50;;;16.60;99.90;;;;;;5051103;28;20056;-69
2023/07/20 07:56:33;;;;;;;3.35;1.20;;;16.70;99.90;;;;;;5033246;28;20037;-69
2023/07/20 07:58:59;;;;;;;3.88;1.35;;;16.70;99.90;;;;;;5040387;28;20045;-69
2023/07/20 08:01:25;;;;;;;2.55;1.20;;;16.70;99.90;;;;;;5058080;28;20123;-69
2023/07/20 08:03:51;;;;;;;2.80;1.20;;;16.80;99.90;;;;;;5058315;28;20061;-69
2023/07/20 08:06:17;;;;;;;3.15;1.10;;;16.90;99.90;;;;;;5041562;28;20080;-69
2023/07/20 08:08:42;;;;;;;5.60;1.10;;;17.00;99.90;;;;;;5056716;28;20493;-69
2023/07/20 08:11:08;;;;;;;3.63;1.20;;;17.00;99.90;;;;;;5048103;28;20187;-69
2023/07/20 08:13:35;;;;;;;;;;;17.00;99.90;;;;;;5040762;28;20686;-69
2023/07/20 08:16:02;;;;;;;1.95;0.98;;;17.00;99.90;;;;;;5035092;28;19921;-69
2023/07/20 08:18:28;;;;;;;2.65;1.17;;;17.00;99.90;;;;;;5054422;28;20048;-69
2023/07/20 08:20:54;;;;;;;3.22;1.23;;;17.00;99.90;;;;;;5033255;28;20045;-69
2023/07/20 08:23:19;;;;;;;1.83;0.90;;;17.00;99.90;;;;;;5039842;28;20421;-69
2023/07/20 08:25:45;;;;;;;2.72;1.00;;;17.10;99.90;;;;;;5035487;28;20037;-69
2023/07/20 08:28:13;;;;;;;2.47;1.15;;;17.00;99.90;;;;;;5029089;28;20152;-69
2023/07/20 08:30:47;;;;;;;2.67;1.02;;;17.10;99.90;;;;;;5041093;28;20119;-68
2023/07/20 08:33:14;;;;;;;3.95;1.35;;;17.20;99.90;;;;;;5039703;28;20095;-69
2023/07/20 08:35:40;;;;;;;2.75;0.90;;;17.30;99.90;;;;;;5040502;28;20055;-69
2023/07/20 08:38:07;;;;;;;3.15;1.20;;;17.40;99.90;;;;;;5052328;28;20098;-69
2023/07/20 08:40:38;;;;;;;2.63;1.20;;;17.60;99.90;;;;;;5016934;28;20053;-69
2023/07/20 08:43:04;;;;;;;2.72;1.10;;;17.60;99.90;;;;;;5035798;28;20388;-69
2023/07/20 08:45:33;;;;;;;4.32;1.17;;;17.80;99.90;;;;;;5048913;28;20669;-69
2023/07/20 08:48:03;;;;;;;3.83;0.93;;;17.80;99.90;;;;;;5037261;28;20044;-69
2023/07/20 08:50:31;;;;;;;3.33;1.10;;;17.90;99.90;;;;;;5049886;28;20037;-70
2023/07/20 08:52:58;;;;;;;2.20;1.08;;;18.10;99.90;;;;;;5050005;28;20033;-69
2023/07/20 08:55:27;;;;;;;2.08;0.80;;;18.20;99.90;;;;;;5036921;28;20064;-69
2023/07/20 08:57:54;;;;;;;2.22;1.10;;;18.30;99.90;;;;;;5049124;28;20083;-69
2023/07/20 09:00:21;;;;;;;2.63;0.77;;;18.30;99.90;;;;;;5035741;28;20048;-69
2023/07/20 09:02:51;;;;;;;2.83;1.10;;;18.30;99.90;;;;;;5053728;28;20041;-69
2023/07/20 09:05:17;;;;;;;5.57;1.42;;;18.30;99.90;;;;;;5035338;28;20041;-69
2023/07/20 09:07:43;;;;;;;2.28;1.20;;;18.20;99.90;;;;;;5034964;28;20041;-69
2023/07/20 09:10:10;;;;;;;3.72;1.02;;;18.20;99.90;;;;;;5028682;28;20041;-69
2023/07/20 09:12:40;;;;;;;8.20;1.25;;;18.20;99.90;;;;;;5035458;28;20082;-69
2023/07/20 09:15:07;;;;;;;3.13;1.23;;;18.10;99.90;;;;;;5014074;28;20115;-69
2023/07/20 09:17:33;;;;;;;1.98;0.90;;;18.00;99.90;;;;;;5051390;28;20041;-69
2023/07/20 09:20:07;;;;;;;6.80;1.23;;;18.00;99.90;;;;;;5039693;28;20089;-69
2023/07/20 09:22:34;;;;;;;2.15;0.88;;;18.00;99.90;;;;;;5034006;28;20053;-69
2023/07/20 09:25:00;;;;;;;3.70;1.00;;;18.00;99.90;;;;;;5051672;28;20426;-69
2023/07/20 09:27:38;;;;;;;2.38;0.90;;;18.10;99.90;;;;;;5055176;28;20044;-69
2023/07/20 09:30:07;;;;;;;5.32;1.13;;;18.30;99.90;;;;;;5030632;28;20049;-69
2023/07/20 09:32:39;;;;;;;2.58;1.13;;;18.40;99.90;;;;;;5033062;28;20127;-69
2023/07/20 09:35:05;;;;;;;1.05;0.50;;;18.60;99.90;;;;;;5036234;28;20072;-69
2023/07/20 09:37:33;;;;;;;2.53;0.55;;;18.60;99.90;;;;;;5053372;28;20099;-69
2023/07/20 09:39:59;;;;;;;3.20;0.60;;;18.60;99.90;;;;;;5033829;28;20384;-69
2023/07/20 09:42:26;;;;;;;2.88;0.60;;;18.60;99.90;;;;;;5029881;28;20063;-69
2023/07/20 09:44:52;;;;;;;5.05;1.08;;;18.60;99.90;;;;;;5039180;28;20075;-69
2023/07/20 09:47:22;;;;;;;2.30;0.80;;;18.60;99.90;;;;;;5043350;28;20100;-69
2023/07/20 09:49:48;;;;;;;1.77;0.80;;;18.60;99.90;;;;;;5034306;28;20107;-69
2023/07/20 09:52:15;;;;;;;6.85;0.77;;;18.60;99.90;;;;;;5010720;28;20065;-69
2023/07/20 09:54:44;;;;;;;2.13;0.70;;;18.70;99.90;;;;;;5050808;28;20072;-69
2023/07/20 09:57:13;;;;;;;3.67;1.02;;;18.80;99.90;;;;;;5035092;28;20040;-70
2023/07/20 09:59:39;;;;;;;4.32;1.13;;;19.00;99.90;;;;;;5026041;28;20484;-69
2023/07/20 10:02:15;;;;;;;2.53;1.10;;;19.20;99.90;;;;;;5033894;28;20044;-69
2023/07/20 10:04:43;;;;;;;3.28;0.95;;;19.40;99.90;;;;;;5059547;28;20044;-69
2023/07/20 10:07:13;;;;;;;3.35;1.27;;;19.40;99.90;;;;;;5050139;28;20363;-69
2023/07/20 10:09:40;;;;;;;4.25;1.02;;;19.40;99.90;;;;;;5007180;28;20056;-69
2023/07/20 10:12:09;;;;;;;2.60;0.80;;;19.40;99.90;;;;;;5034419;28;20475;-69
2023/07/20 10:14:41;;;;;;;3.30;1.00;;;19.30;99.90;;;;;;5067902;22;20048;-71
2023/07/20 10:17:11;;;;;;;1.95;0.70;;;19.40;99.90;;;;;;5043807;28;20123;-70
2023/07/20 10:19:44;;;;;;;2.85;0.98;;;19.60;99.90;;;;;;5056591;28;20524;-70
2023/07/20 10:22:36;;;;;;;3.38;0.68;;;19.60;99.90;;;;;;5052104;28;20090;-70
2023/07/20 10:25:04;;;;;;;5.85;1.30;;;19.60;99.90;;;;;;5044610;28;20048;-70
2023/07/20 10:27:30;;;;;;;3.15;0.95;;;19.70;99.90;;;;;;5071095;28;20448;-70
2023/07/20 10:29:58;;;;;;;1.58;0.63;;;19.70;99.90;;;;;;5057598;28;20086;-70
2023/07/20 10:32:24;;;;;;;2.95;0.73;;;19.80;99.90;;;;;;5051226;28;20131;-70
2023/07/20 10:34:52;;;;;;;2.42;0.75;;;19.80;99.90;;;;;;5046818;28;20089;-70
2023/07/20 10:37:47;;;;;;;2.80;0.80;;;19.90;99.90;;;;;;5064307;28;20351;-70
2023/07/20 10:40:30;;;;;;;1.73;0.77;;;19.90;99.90;;;;;;5070113;28;20056;-70
2023/07/20 10:43:07;;;;;;;3.15;0.70;;;19.90;99.90;;;;;;5057403;28;20108;-70
2023/07/20 10:45:36;;;;;;;3.10;0.90;;;19.90;99.90;;;;;;5049463;28;20504;-70
2023/07/20 10:48:27;;;;;;;2.05;0.60;;;19.90;99.90;;;;;;5053767;28;20119;-70
2023/07/20 10:51:14;;;;;;;3.17;0.70;;;19.90;99.90;;;;;;5046536;28;20052;-71
2023/07/20 10:53:40;;;;;;;3.10;1.00;;;20.00;99.90;;;;;;5067813;28;20044;-71
2023/07/20 10:56:15;;;;;;;4.25;1.40;;;20.20;99.90;;;;;;5058658;28;20071;-70
2023/07/20 10:58:41;;;;;;;2.10;0.82;;;20.30;99.90;;;;;;5072214;28;20109;-69
2023/07/20 11:01:08;;;;;;;2.45;0.80;;;20.30;99.90;;;;;;5063339;28;20478;-69
2023/07/20 11:03:38;;;;;;;2.33;0.85;;;20.30;99.90;;;;;;5060462;28;20052;-70
2023/07/20 11:06:38;;;;;;;1.40;0.60;;;20.20;99.90;;;;;;5053738;28;20501;-70
2023/07/20 11:09:15;;;;;;;2.03;0.80;;;20.10;99.90;;;;;;4999416;28;20064;-70
2023/07/20 11:12:08;;;;;;;2.10;0.88;;;20.00;99.90;;;;;;5039467;28;20448;-70
2023/07/20 11:14:34;;;;;;;3.33;0.98;;;19.80;99.90;;;;;;5047204;28;20044;-70
2023/07/20 11:17:13;;;;;;;4.07;0.85;;;19.50;99.90;;;;;;5033051;28;20496;-70
2023/07/20 11:19:40;;;;;;;3.20;1.00;;;19.40;99.90;;;;;;5051117;28;20052;-70
2023/07/20 11:22:07;;;;;;;2.03;0.65;;;19.20;99.90;;;;;;5047020;28;20083;-73
2023/07/20 11:24:34;;;;;;;2.13;1.02;;;19.10;99.90;;;;;;5047617;28;20433;-70
2023/07/20 11:27:01;;;;;;;2.17;1.20;;;19.00;99.90;;;;;;5067628;28;20079;-70
2023/07/20 11:29:27;;;;;;;1.73;0.73;;;18.90;99.90;;;;;;5065659;28;20518;-70
2023/07/20 11:31:52;;;;;;;4.60;0.70;;;18.80;99.90;;;;;;5042649;28;20123;-70
2023/07/20 11:34:20;;;;;;;2.70;0.85;;;18.80;99.90;;;;;;5050049;28;20508;-70
2023/07/20 11:36:47;;;;;;;4.05;1.30;;;19.00;99.90;;;;;;5058635;28;20132;-70
2023/07/20 11:39:15;;;;;;;3.53;0.93;;;19.20;99.90;;;;;;5074861;28;20491;-70
2023/07/20 11:41:49;;;;;;;4.40;1.00;;;19.50;99.90;;;;;;5054132;28;20040;-70
2023/07/20 11:44:20;;;;;;;2.95;0.80;;;19.80;99.90;;;;;;5070557;28;20076;-71
2023/07/20 11:46:46;;;;;;;1.50;0.77;;;20.10;99.90;;;;;;5072988;28;20047;-70
2023/07/20 11:49:12;;;;;;;1.92;0.80;;;20.30;99.90;;;;;;5068020;28;20032;-71
2023/07/20 11:51:39;;;;;;;;;;;20.50;99.90;;;;;;5037986;28;20142;-70
2023/07/20 11:54:07;;;;;;;2.85;0.70;;;20.50;99.90;;;;;;5043197;28;20350;-70
2023/07/20 11:56:33;;;;;;;1.80;0.80;;;20.60;99.90;;;;;;5059798;28;20044;-70
2023/07/20 11:59:01;;;;;;;5.10;1.27;;;20.60;99.90;;;;;;5039403;28;20067;-71
2023/07/20 12:01:32;;;;;;;3.45;1.10;;;20.60;99.90;;;;;;5034065;28;20061;-70
2023/07/20 12:04:04;;;;;;;2.55;0.95;;;20.70;99.90;;;;;;5053621;28;20041;-71
2023/07/20 12:06:32;;;;;;;3.65;1.10;;;20.90;99.90;;;;;;5049377;28;20071;-76
2023/07/20 12:08:59;;;;;;;3.83;1.00;;;21.20;99.90;;;;;;5046031;28;20064;-71
2023/07/20 12:11:51;;;;;;;3.10;1.10;;;21.40;99.90;;;;;;5052534;28;20049;-71
2023/07/20 12:14:17;;;;;;;4.07;0.90;;;21.60;99.90;;;;;;5045762;28;20053;-74
2023/07/20 12:16:43;;;;;;;;;;;21.60;99.90;;;;;;5044922;28;20044;-76
2023/07/20 12:19:13;;;;;;;2.90;0.80;;;21.60;99.90;;;;;;5054035;28;19966;-70
2023/07/20 12:21:41;;;;;;;3.60;1.00;;;21.70;99.90;;;;;;5050395;28;20059;-71
2023/07/20 12:24:09;;;;;;;2.42;1.10;;;21.90;99.90;;;;;;5056424;28;20495;-71
2023/07/20 12:26:35;;;;;;;2.95;1.05;;;21.70;99.90;;;;;;5071248;28;20193;-69
2023/07/20 12:29:00;;;;;;;;;;;21.60;99.90;;;;;;5045789;28;20067;-70
2023/07/20 12:31:27;;;;;;;1.10;0.65;;;21.40;99.90;;;;;;5042590;28;19924;-70
2023/07/20 12:33:56;;;;;;;3.58;1.10;;;21.50;99.90;;;;;;5036323;28;20044;-70
2023/07/20 12:36:23;;;;;;;2.08;1.00;;;21.70;99.90;;;;;;5051170;28;20058;-70
2023/07/20 12:38:48;;;;;;;;;;;21.90;99.90;;;;;;5061746;28;20139;-70
2023/07/20 12:41:14;;;;;;;3.55;1.23;;;22.00;99.90;;;;;;5076908;28;19920;-70
2023/07/20 12:43:41;;;;;;;2.95;1.08;;;22.00;99.90;;;;;;5053699;28;20095;-70
2023/07/20 12:46:07;;;;;;;2.63;1.00;;;22.10;99.90;;;;;;5057432;28;20040;-70
2023/07/20 12:48:33;;;;;;;1.75;0.80;;;22.10;99.90;;;;;;5043989;28;20447;-70
2023/07/20 12:50:59;;;;;;;;;;;22.30;99.90;;;;;;5043704;28;20065;-71
2023/07/20 12:53:25;;;;;;;2.33;0.93;;;22.40;99.90;;;;;;5045042;28;19917;-70